Time;durP1;ratioP1;P1;durP2;ratioP2;P2;SDS_P1;SDS_P2;PMS_P1;PMS_P2;Temp;Humidity;BMP_temperature;BMP_pressure;BME280_temperature;BME280_humidity;BME280_pressure;Samples;Min_cycle;Max_cycle;Signal;HPM_P1;HPM_P2
2022/12/16 00:04:22;;;;;;;;;64.00;51.50;;;;;;;;6489380;46;8991;-62
2022/12/16 00:10:51;;;;;;;;;62.25;47.00;;;;;;;;6488912;31;8853;-62
2022/12/16 00:16:49;;;;;;;;;66.50;48.00;;;;;;;;6489046;46;8932;-62
2022/12/16 00:22:51;;;;;;;;;66.25;50.50;;;;;;;;6488831;46;8853;-63
2022/12/16 00:28:53;;;;;;;;;66.50;49.00;;;;;;;;6489017;46;8845;-62
2022/12/16 00:34:58;;;;;;;;;60.25;47.25;;;;;;;;6489602;46;8880;-62
2022/12/16 00:41:00;;;;;;;;;54.25;46.00;;;;;;;;6488633;39;8901;-61
2022/12/16 00:47:02;;;;;;;;;64.25;49.25;;;;;;;;6488882;46;8852;-61
2022/12/16 00:53:05;;;;;;;;;44.50;41.00;;;;;;;;6489126;39;9499;-63
2022/12/16 00:59:07;;;;;;;;;53.00;46.75;;;;;;;;6489349;39;8897;-62
2022/12/16 01:05:11;;;;;;;;;52.00;46.00;;;;;;;;6488884;39;8995;-61
2022/12/16 01:11:15;;;;;;;;;53.50;45.50;;;;;;;;6489125;39;8837;-61
2022/12/16 01:17:17;;;;;;;;;56.75;46.75;;;;;;;;6488522;39;8920;-64
2022/12/16 01:23:21;;;;;;;;;61.50;44.25;;;;;;;;6489503;39;8884;-62
2022/12/16 01:29:24;;;;;;;;;43.75;41.25;;;;;;;;6489100;46;8863;-61
2022/12/16 01:35:26;;;;;;;;;47.00;35.00;;;;;;;;6488475;31;8868;-61
2022/12/16 01:41:48;;;;;;;;;39.25;32.25;;;;;;;;6488848;46;8873;-62
2022/12/16 01:47:54;;;;;;;;;23.75;22.50;;;;;;;;6488727;39;8891;-61
2022/12/16 01:54:14;;;;;;;;;39.75;35.50;;;;;;;;6489390;39;8828;-61
2022/12/16 02:00:17;;;;;;;;;38.25;38.00;;;;;;;;6488829;39;8880;-61
2022/12/16 02:06:21;;;;;;;;;44.50;35.00;;;;;;;;6488775;46;9126;-62
2022/12/16 02:13:01;;;;;;;;;41.00;32.75;;;;;;;;6488865;36;8988;-63
2022/12/16 02:19:42;;;;;;;;;51.75;40.75;;;;;;;;6486961;46;8894;-62
2022/12/16 02:25:50;;;;;;;;;43.75;36.75;;;;;;;;6488008;46;8838;-62
2022/12/16 02:32:31;;;;;;;;;53.00;40.00;;;;;;;;6488462;46;8881;-62
2022/12/16 02:38:59;;;;;;;;;43.00;36.00;;;;;;;;6485616;31;8930;-62
2022/12/16 02:45:16;;;;;;;;;41.75;30.25;;;;;;;;6487780;46;8855;-61
2022/12/16 02:51:20;;;;;;;;;36.25;34.25;;;;;;;;6488462;31;8882;-62
2022/12/16 02:57:43;;;;;;;;;36.00;30.00;;;;;;;;6489200;31;8915;-63
2022/12/16 03:03:52;;;;;;;;;35.00;32.00;;;;;;;;6488231;39;9040;-61
2022/12/16 03:09:58;;;;;;;;;35.75;30.25;;;;;;;;6488378;31;8874;-61
2022/12/16 03:16:04;;;;;;;;;41.25;36.50;;;;;;;;6488446;39;9514;-62
2022/12/16 03:22:17;;;;;;;;;31.00;29.75;;;;;;;;6488209;31;8874;-62
2022/12/16 03:28:42;;;;;;;;;48.75;39.25;;;;;;;;6488032;31;8878;-62
2022/12/16 03:34:52;;;;;;;;;39.50;31.50;;;;;;;;6486829;46;8922;-62
2022/12/16 03:40:54;;;;;;;;;41.75;33.50;;;;;;;;6488175;31;8843;-63
2022/12/16 03:46:57;;;;;;;;;40.50;35.00;;;;;;;;6487717;46;8882;-63
2022/12/16 03:53:00;;;;;;;;;36.25;29.25;;;;;;;;6487953;47;8937;-62
2022/12/16 03:59:02;;;;;;;;;34.25;24.50;;;;;;;;6487341;39;8918;-66
2022/12/16 04:05:05;;;;;;;;;39.50;31.75;;;;;;;;6487149;47;8934;-63
2022/12/16 04:30:37;;;;;;;;;42.50;37.00;;;;;;;;6486345;39;8891;-64
